createdAt,value
2022-10-19T00:05:38.181Z,1029.5
2022-10-19T00:20:34.187Z,1029.5
2022-10-19T00:35:30.341Z,1029.4
2022-10-19T00:50:27.022Z,1029.5
2022-10-19T01:05:22.643Z,1029.5
2022-10-19T01:20:18.623Z,1029.3
2022-10-19T01:35:15.057Z,1029.4
2022-10-19T01:50:10.916Z,1029.2
2022-10-19T02:05:06.901Z,1029
2022-10-19T02:20:03.429Z,1029
2022-10-19T02:35:00.229Z,1028.9
2022-10-19T02:49:56.622Z,1028.9
2022-10-19T03:04:52.660Z,1028.9
2022-10-19T03:19:49.336Z,1028.7
2022-10-19T03:34:45.578Z,1028.6
2022-10-19T03:49:41.275Z,1028.6
2022-10-19T04:04:37.753Z,1028.7
2022-10-19T04:19:33.898Z,1028.7
2022-10-19T04:34:30.504Z,1028.7
2022-10-19T04:49:26.669Z,1028.8
2022-10-19T05:04:22.548Z,1028.8
2022-10-19T05:19:19.131Z,1028.7
2022-10-19T05:34:15.660Z,1028.5
2022-10-19T05:49:11.634Z,1028.5
2022-10-19T06:04:07.607Z,1028.6
2022-10-19T06:19:03.811Z,1028.4
2022-10-19T06:33:59.984Z,1028.5
2022-10-19T06:48:56.227Z,1028.5
2022-10-19T07:03:52.852Z,1028.5
2022-10-19T07:18:49.566Z,1028.6
2022-10-19T07:33:45.967Z,1028.6
2022-10-19T07:48:42.672Z,1028.5
2022-10-19T08:18:35.519Z,1028.6
2022-10-19T08:33:31.634Z,1028.5
2022-10-19T08:48:27.955Z,1028.2
2022-10-19T09:03:31.816Z,1027.9
2022-10-19T09:18:20.907Z,1028
2022-10-19T09:33:17.263Z,1027.8
2022-10-19T09:48:13.990Z,1027.6
2022-10-19T10:03:10.355Z,1027.7
2022-10-19T10:18:06.466Z,1027.5
2022-10-19T10:33:08.024Z,1027.4
2022-10-19T10:48:00.348Z,1027.3
2022-10-19T11:02:57.190Z,1027.1
2022-10-19T11:17:53.891Z,1026.8
2022-10-19T11:32:49.783Z,1026.7
2022-10-19T11:47:45.935Z,1026.5
2022-10-19T12:02:42.319Z,1026.2
2022-10-19T12:17:39.108Z,1026
2022-10-19T12:32:35.439Z,1025.6
2022-10-19T13:02:27.688Z,1025.3
2022-10-19T13:17:24.238Z,1025
2022-10-19T13:32:20.347Z,1024.8
2022-10-19T13:47:16.760Z,1024.7
2022-10-19T14:02:13.074Z,1024.7
2022-10-19T14:17:09.204Z,1024.7
2022-10-19T14:32:05.569Z,1024.5
2022-10-19T14:47:01.865Z,1024.3
2022-10-19T15:01:58.272Z,1024.1
2022-10-19T15:16:54.532Z,1023.9
2022-10-19T15:31:50.962Z,1023.9
2022-10-19T15:46:47.083Z,1023.9
2022-10-19T16:01:42.756Z,1023.8
2022-10-19T16:16:38.174Z,1023.7
2022-10-19T16:31:34.061Z,1023.6
2022-10-19T16:46:29.629Z,1023.5
2022-10-19T17:01:25.407Z,1023.5
2022-10-19T17:16:21.577Z,1023.6
2022-10-19T17:31:17.363Z,1023.3
2022-10-19T17:46:12.720Z,1023.4
2022-10-19T18:01:09.105Z,1023.3
2022-10-19T18:16:05.005Z,1023.3
2022-10-19T18:31:01.256Z,1023.2
2022-10-19T18:45:57.193Z,1023
2022-10-19T19:00:53.528Z,1023
2022-10-19T19:15:49.558Z,1022.9
2022-10-19T19:30:45.478Z,1022.8
2022-10-19T19:45:41.477Z,1022.5
2022-10-19T20:00:38.048Z,1022.5
2022-10-19T20:15:34.016Z,1022.4
2022-10-19T20:30:29.313Z,1022.3
2022-10-19T20:45:24.978Z,1022.2
2022-10-19T21:00:21.029Z,1022.1
2022-10-19T21:15:17.352Z,1021.8
2022-10-19T21:30:13.570Z,1021.9
2022-10-19T21:45:29.043Z,1021.8
2022-10-19T22:00:05.193Z,1021.7
2022-10-19T22:15:01.428Z,1021.6
2022-10-19T22:29:57.880Z,1021.3
2022-10-19T22:44:54.003Z,1021.1
2022-10-19T22:59:50.089Z,1020.6
2022-10-19T23:14:46.329Z,1020.4
2022-10-19T23:29:42.742Z,1020.4
2022-10-19T23:44:39.227Z,1020.3
2022-10-19T23:59:35.867Z,1020.3
